Terminal Aerodrome Forecast
Issued by NWS

Home | Current Version | Previous Version | Text Only | Print | Product List | Glossary On
Versions: 1 2 3 4 5 6 7 8 9 10 11 12 13 14 15 16 17 18 19 20 21 22 23 24 25
000
FTUS43 KGRB 140603 AAA
TAFATW
TAF AMD
KATW 140603Z 1406/1506 32008KT P6SM SCT025 SCT035
      TEMPO 1406/1410 -SHSN
     FM141000 30007KT P6SM BKN026
     FM141500 26006KT P6SM BKN040
     FM142100 25007KT P6SM BKN027
     FM142300 26006KT P6SM -SHSN BKN030=

USA.gov is the U.S. government's official web portal to all federal, state and local government web resources and services.